メインページ
METAR-TAF:

METAR-TAF

空港 :

Lynn Lake, マニトバ州, カナダ

緯度: 56-52N, 経度: 101-05W, 海抜: 357m

現時点の気象観測

当レポートは1時間13分前の10:00(UTC)に作成
東/北東の風 4kt
気温 -8°C
湿度 92%
気圧 997 hPa
視程: 14.5km
高度6500ftの曇り

METAR: CYYL 221000Z AUTO 07004KT 9SM OVC065 M08/M09 A2944 RMK SLP994

時間: 05:13 (11:13 UTC)

予報

当レポートは4時間35分前の06:38(UTC)に作成
予報は22日の 07時(UTC)から 22日の 19時(UTC)まで有効
南西の風 5kt
視程: 10km
高度10000ftの千切れ雲あり
22日の 1000時(UTC)から
西の風 6kt
視程: 10km
高度1500ftの雲は散在している
高度8000ftの千切れ雲あり
22日の 10時(UTC)から 22日の 16時(UTC)まで一時的に
視程: 8.0km
高度1500ftの千切れ雲あり
高度8000ftの曇り
小雪
22日の 1600時(UTC)から
西の風 8kt
視程: 10km
高度2000ftの雲はほとんどない
高度8000ftの雲は散在している
22日の 16時(UTC)から 22日の 19時(UTC)まで一時的に
高度2000ftの雲は散在している
高度8000ftの千切れ雲あり

TAF: CYYL 220638Z 2207/2219 23005KT P6SM BKN100 FM221000 26006KT P6SM SCT015 BKN080 TEMPO 2210/2216 5SM -SN BKN015 OVC080 FM221600 27008KT P6SM FEW020 SCT080 TEMPO 2216/2219 SCT020 BKN080 RMK FCST BASED ON AUTO OBS. NXT FCST BY 221300Z

4,000以上の空港の気象観測と天気予報(METAR報とTAF報)

利用可能な観測所は地図上に黄色い丸と赤い丸で示す。

丸の上にカーソルを重ねると観測所名を参照できる。

次にクリックすると気象観測と天気予報を参照できる。

マップの切り替え:黒色「×」印の緑ボタンをクリックして拡大、「-」印の緑ボタンをクリックして縮小、緑色の三角印をクリックして隣りの地図に切り替え


METAR-TAF: